createdAt,value
2018-03-17T00:00:29.305Z,5.20
2018-03-17T00:02:56.771Z,5.20
2018-03-17T00:05:24.254Z,5.20
2018-03-17T00:07:51.715Z,5.20
2018-03-17T00:10:19.364Z,5.10
2018-03-17T00:12:47.621Z,5.20
2018-03-17T00:15:15.112Z,5.10
2018-03-17T00:17:42.584Z,5.20
2018-03-17T00:20:10.162Z,5.20
2018-03-17T00:22:37.652Z,5.20
2018-03-17T00:25:05.146Z,5.10
2018-03-17T00:27:32.606Z,5.10
2018-03-17T00:30:00.072Z,5.10
2018-03-17T00:32:27.550Z,5.10
2018-03-17T00:34:55.779Z,5.10
2018-03-17T00:37:23.255Z,5.00
2018-03-17T00:39:50.716Z,5.10
2018-03-17T00:42:18.190Z,5.00
2018-03-17T00:44:45.685Z,5.00
2018-03-17T00:47:13.158Z,5.00
2018-03-17T00:49:40.627Z,5.00
2018-03-17T00:52:08.169Z,4.90
2018-03-17T00:54:35.625Z,4.80
2018-03-17T00:57:03.135Z,4.80
2018-03-17T00:59:30.592Z,4.80
2018-03-17T01:01:58.096Z,4.70
2018-03-17T01:04:26.336Z,4.70
2018-03-17T01:06:53.808Z,4.60
2018-03-17T01:09:21.287Z,4.70
2018-03-17T01:11:48.745Z,4.70
2018-03-17T01:14:16.219Z,4.60
2018-03-17T01:16:43.681Z,4.60
2018-03-17T01:19:11.144Z,4.60
2018-03-17T01:21:38.605Z,4.60
2018-03-17T01:24:06.079Z,4.60
2018-03-17T01:26:33.544Z,4.60
2018-03-17T01:29:01.023Z,4.60
2018-03-17T01:31:28.491Z,4.60
2018-03-17T01:33:56.723Z,4.60
2018-03-17T01:36:24.195Z,4.50
2018-03-17T01:38:51.667Z,4.50
2018-03-17T01:41:19.139Z,4.50
2018-03-17T01:43:46.612Z,4.50
2018-03-17T01:46:14.085Z,4.40
2018-03-17T01:48:41.549Z,4.40
2018-03-17T01:51:09.020Z,4.40
2018-03-17T01:53:36.495Z,4.40
2018-03-17T01:56:03.971Z,4.40
2018-03-17T01:58:32.212Z,4.30
2018-03-17T02:00:59.680Z,4.30
2018-03-17T02:03:27.150Z,4.30
2018-03-17T02:05:54.688Z,4.30
2018-03-17T02:08:22.151Z,4.30
2018-03-17T02:10:49.814Z,4.30
2018-03-17T02:13:17.419Z,4.30
2018-03-17T02:15:45.648Z,4.20
2018-03-17T02:18:13.116Z,4.20
2018-03-17T02:20:40.592Z,4.20
2018-03-17T02:23:08.056Z,4.20
2018-03-17T02:25:35.516Z,4.20
2018-03-17T02:28:03.047Z,4.20
2018-03-17T02:30:30.577Z,4.20
2018-03-17T02:32:58.074Z,4.10
2018-03-17T02:35:25.587Z,4.10
2018-03-17T02:37:53.064Z,4.20
2018-03-17T02:40:20.520Z,4.20
2018-03-17T02:42:47.992Z,4.20
2018-03-17T02:45:15.451Z,4.20
2018-03-17T02:47:42.954Z,4.20
2018-03-17T02:50:10.412Z,4.20
2018-03-17T02:52:38.120Z,4.20
2018-03-17T02:55:05.531Z,4.20
2018-03-17T02:57:33.017Z,4.20
2018-03-17T03:00:00.492Z,4.20
2018-03-17T03:02:27.952Z,4.20
2018-03-17T03:04:55.424Z,4.20
2018-03-17T03:07:22.887Z,4.20
2018-03-17T03:09:50.362Z,4.20
2018-03-17T03:12:17.832Z,4.20
2018-03-17T03:14:45.300Z,4.20
2018-03-17T03:17:12.796Z,4.20
2018-03-17T03:19:41.065Z,4.10
2018-03-17T03:22:08.531Z,4.10
2018-03-17T03:24:36.009Z,4.10
2018-03-17T03:27:03.472Z,4.10
2018-03-17T03:29:30.969Z,4.10
2018-03-17T03:31:58.427Z,4.10
2018-03-17T03:34:25.891Z,4.10
2018-03-17T03:36:53.347Z,4.00
2018-03-17T03:39:20.840Z,4.10
2018-03-17T03:41:49.409Z,4.00
2018-03-17T03:44:16.862Z,4.00
2018-03-17T03:46:44.331Z,4.00
2018-03-17T03:49:11.796Z,4.10
2018-03-17T03:51:39.267Z,4.00
2018-03-17T03:54:06.733Z,4.00
2018-03-17T03:56:34.204Z,4.00
2018-03-17T03:59:01.691Z,4.00
2018-03-17T04:01:29.155Z,4.00
2018-03-17T04:03:56.612Z,4.00
2018-03-17T04:06:24.100Z,3.90
2018-03-17T04:08:52.327Z,3.80
2018-03-17T04:11:19.792Z,3.80
2018-03-17T04:13:47.266Z,3.80
2018-03-17T04:16:14.736Z,3.80
2018-03-17T04:18:42.199Z,3.70
2018-03-17T04:21:09.682Z,3.70
2018-03-17T04:23:37.151Z,3.70
2018-03-17T04:26:04.615Z,3.70
2018-03-17T04:28:32.121Z,3.70
2018-03-17T04:30:59.611Z,3.70
2018-03-17T04:33:27.102Z,3.70
2018-03-17T04:35:54.563Z,3.70
2018-03-17T04:38:22.036Z,3.60
2018-03-17T04:40:49.502Z,3.50
2018-03-17T04:43:16.964Z,3.60
2018-03-17T04:45:44.423Z,3.60
2018-03-17T04:48:11.892Z,3.50
2018-03-17T04:50:39.363Z,3.50
2018-03-17T04:53:06.832Z,3.40
2018-03-17T04:55:34.288Z,3.50
2018-03-17T04:58:01.765Z,3.50
2018-03-17T05:00:29.280Z,3.50
2018-03-17T05:02:56.771Z,3.50
2018-03-17T05:05:24.238Z,3.40
2018-03-17T05:07:51.696Z,3.40
2018-03-17T05:10:19.167Z,3.30
2018-03-17T05:12:46.629Z,3.30
2018-03-17T05:15:14.096Z,3.20
2018-03-17T05:17:41.556Z,3.20
2018-03-17T05:20:09.036Z,3.20
2018-03-17T05:22:36.494Z,3.20
2018-03-17T05:25:04.011Z,3.10
2018-03-17T05:27:31.476Z,3.10
2018-03-17T05:29:58.943Z,3.10
2018-03-17T05:32:26.407Z,3.10
2018-03-17T05:34:53.871Z,3.10
2018-03-17T05:37:21.348Z,3.10
2018-03-17T05:39:48.816Z,3.10
2018-03-17T05:42:16.271Z,3.10
2018-03-17T05:44:43.752Z,3.10
2018-03-17T05:47:11.979Z,3.10
2018-03-17T05:49:39.455Z,3.10
2018-03-17T05:52:06.911Z,3.10
2018-03-17T05:54:34.412Z,3.10
2018-03-17T05:57:01.879Z,3.10
2018-03-17T05:59:29.329Z,3.20
2018-03-17T06:01:56.801Z,3.10
2018-03-17T06:04:24.264Z,3.10
2018-03-17T06:06:51.739Z,3.20
2018-03-17T06:09:19.201Z,3.20
2018-03-17T06:11:46.682Z,3.20
2018-03-17T06:14:14.139Z,3.20
2018-03-17T06:16:41.607Z,3.20
2018-03-17T06:19:09.072Z,3.20
2018-03-17T06:21:36.536Z,3.20
2018-03-17T06:24:03.992Z,3.30
2018-03-17T06:26:31.463Z,3.30
2018-03-17T06:28:58.932Z,3.30
2018-03-17T06:31:26.414Z,3.30
2018-03-17T06:33:53.873Z,3.20
2018-03-17T06:36:21.451Z,3.20
2018-03-17T06:38:48.908Z,3.20
2018-03-17T06:41:16.383Z,3.20
2018-03-17T06:43:43.843Z,3.20
2018-03-17T06:46:11.291Z,3.20
2018-03-17T06:48:38.768Z,3.20
2018-03-17T06:51:06.252Z,3.20
2018-03-17T06:53:33.720Z,3.20
2018-03-17T06:56:01.176Z,3.10
2018-03-17T06:58:28.652Z,3.10
2018-03-17T07:00:56.112Z,3.00
2018-03-17T07:03:23.589Z,3.00
2018-03-17T07:05:51.049Z,3.00
2018-03-17T07:08:18.514Z,3.00
2018-03-17T07:10:45.976Z,2.90
2018-03-17T07:13:13.444Z,2.90
2018-03-17T07:15:40.900Z,2.90
2018-03-17T07:18:08.372Z,2.80
2018-03-17T07:20:35.825Z,2.90
2018-03-17T07:23:03.285Z,2.90
2018-03-17T07:25:30.754Z,2.80
2018-03-17T07:27:58.213Z,2.80
2018-03-17T07:30:25.691Z,2.70
2018-03-17T07:32:53.148Z,2.70
2018-03-17T07:35:20.616Z,2.70
2018-03-17T07:37:48.085Z,2.70
2018-03-17T07:40:15.553Z,2.70
2018-03-17T07:42:43.026Z,2.70
2018-03-17T07:45:11.299Z,2.70
2018-03-17T07:47:38.772Z,2.70
2018-03-17T07:50:06.236Z,2.70
2018-03-17T07:52:33.700Z,2.70
2018-03-17T07:55:01.191Z,2.70
2018-03-17T07:57:28.652Z,2.80
2018-03-17T07:59:56.111Z,2.80
2018-03-17T08:02:23.592Z,2.70
2018-03-17T08:04:51.056Z,2.70
2018-03-17T08:07:18.520Z,2.60
2018-03-17T08:09:46.751Z,2.50
2018-03-17T08:12:14.221Z,2.50
2018-03-17T08:14:41.685Z,2.50
2018-03-17T08:17:09.160Z,2.50
2018-03-17T08:19:36.626Z,2.60
2018-03-17T08:22:04.101Z,2.50
2018-03-17T08:24:31.614Z,2.50
2018-03-17T08:26:59.109Z,2.40
2018-03-17T08:29:27.342Z,2.40
2018-03-17T08:31:54.817Z,2.40
2018-03-17T08:34:22.282Z,2.40
2018-03-17T08:36:49.755Z,2.40
2018-03-17T08:39:17.216Z,2.40
2018-03-17T08:41:44.688Z,2.40
2018-03-17T08:44:12.166Z,2.40
2018-03-17T08:46:39.620Z,2.40
2018-03-17T08:49:07.097Z,2.40
2018-03-17T08:51:34.561Z,2.40
2018-03-17T08:54:02.040Z,2.40
2018-03-17T08:56:30.270Z,2.40
2018-03-17T08:58:57.838Z,2.30
2018-03-17T09:01:25.256Z,2.40
2018-03-17T09:03:52.737Z,2.40
2018-03-17T09:06:20.200Z,2.40
2018-03-17T09:08:47.688Z,2.40
2018-03-17T09:11:15.155Z,2.40
2018-03-17T09:13:43.412Z,2.30
2018-03-17T09:16:10.875Z,2.30
2018-03-17T09:18:38.348Z,2.30
2018-03-17T09:21:05.845Z,2.30
2018-03-17T09:23:33.320Z,2.30
2018-03-17T09:26:00.798Z,2.20
2018-03-17T09:28:28.328Z,2.20
2018-03-17T09:30:55.787Z,2.20
2018-03-17T09:33:23.248Z,2.20
2018-03-17T09:35:50.728Z,2.20
2018-03-17T09:38:18.208Z,2.20
2018-03-17T09:40:46.471Z,2.20
2018-03-17T09:43:14.739Z,2.20
2018-03-17T09:45:42.255Z,2.20
2018-03-17T09:48:09.729Z,2.20
2018-03-17T09:50:37.192Z,2.20
2018-03-17T09:53:04.700Z,2.20
2018-03-17T09:55:32.949Z,2.20
2018-03-17T09:58:00.413Z,2.20
2018-03-17T10:00:27.897Z,2.20
2018-03-17T10:02:55.356Z,2.20
2018-03-17T10:05:22.866Z,2.20
2018-03-17T10:07:50.338Z,2.30
2018-03-17T10:10:17.804Z,2.30
2018-03-17T10:12:46.268Z,2.30
2018-03-17T10:15:13.788Z,2.30
2018-03-17T10:17:41.256Z,2.30
2018-03-17T10:20:08.737Z,2.30
2018-03-17T10:22:36.250Z,2.30
2018-03-17T10:25:03.724Z,2.30
2018-03-17T10:27:31.205Z,2.30
2018-03-17T10:29:58.689Z,2.30
2018-03-17T10:32:26.909Z,2.30
2018-03-17T10:34:54.372Z,2.30
2018-03-17T10:37:21.845Z,2.40
2018-03-17T10:39:49.337Z,2.40
2018-03-17T10:42:16.784Z,2.50
2018-03-17T10:44:44.293Z,2.50
2018-03-17T10:47:15.630Z,2.60
2018-03-17T10:49:43.154Z,2.60
2018-03-17T10:52:10.654Z,2.60
2018-03-17T10:54:38.124Z,2.60
2018-03-17T10:57:05.600Z,2.60
2018-03-17T10:59:33.158Z,2.60
2018-03-17T11:02:01.216Z,2.60
2018-03-17T11:04:28.673Z,2.60
2018-03-17T11:06:56.155Z,2.60
2018-03-17T11:09:23.609Z,2.60
2018-03-17T11:11:51.113Z,2.60
2018-03-17T11:14:18.570Z,2.70
2018-03-17T11:16:46.037Z,2.60
2018-03-17T11:19:13.500Z,2.60
2018-03-17T11:21:40.977Z,2.60
2018-03-17T11:24:08.436Z,2.60
2018-03-17T11:26:35.924Z,2.60
2018-03-17T11:29:03.439Z,2.60
2018-03-17T11:31:30.920Z,2.70
2018-03-17T11:33:58.395Z,2.80
2018-03-17T11:36:26.641Z,2.80
2018-03-17T11:38:54.116Z,2.70
2018-03-17T11:41:21.581Z,2.70
2018-03-17T11:43:49.044Z,2.70
2018-03-17T11:46:16.512Z,2.70
2018-03-17T11:48:43.991Z,2.70
2018-03-17T11:51:11.454Z,2.70
2018-03-17T11:53:38.934Z,2.60
2018-03-17T11:56:06.387Z,2.60
2018-03-17T11:58:33.859Z,2.60
2018-03-17T12:01:01.333Z,2.50
2018-03-17T12:03:29.579Z,2.50
2018-03-17T12:05:57.047Z,2.50
2018-03-17T12:08:24.537Z,2.60
2018-03-17T12:10:51.991Z,2.60
2018-03-17T12:13:20.225Z,2.50
2018-03-17T12:15:47.692Z,2.50
2018-03-17T12:18:15.156Z,2.60
2018-03-17T12:20:42.638Z,2.60
2018-03-17T12:23:10.104Z,2.60
2018-03-17T12:25:37.573Z,2.60
2018-03-17T12:28:05.047Z,2.60
2018-03-17T12:30:32.527Z,2.60
2018-03-17T12:32:59.984Z,2.60
2018-03-17T12:35:27.469Z,2.60
2018-03-17T12:37:54.924Z,2.60
2018-03-17T12:40:22.435Z,2.50
2018-03-17T12:42:49.906Z,2.50
2018-03-17T12:45:17.368Z,2.60
2018-03-17T12:47:44.844Z,2.60
2018-03-17T12:50:12.307Z,2.50
2018-03-17T12:52:40.540Z,2.40
2018-03-17T12:55:08.011Z,2.40
2018-03-17T12:57:35.468Z,2.40
2018-03-17T13:00:02.967Z,2.40
2018-03-17T13:02:30.420Z,2.40
2018-03-17T13:04:57.879Z,2.40
2018-03-17T13:07:25.371Z,2.30
2018-03-17T13:09:52.873Z,2.30
2018-03-17T13:12:20.341Z,2.30
2018-03-17T13:14:48.820Z,2.20
2018-03-17T13:17:16.606Z,2.20
2018-03-17T13:19:44.052Z,2.20
2018-03-17T13:22:11.520Z,2.10
2018-03-17T13:24:38.991Z,2.10
2018-03-17T13:27:18.150Z,2.10
2018-03-17T13:29:45.626Z,2.10
2018-03-17T13:32:24.992Z,2.10
2018-03-17T13:34:52.451Z,2.10
2018-03-17T13:37:31.729Z,2.10
2018-03-17T13:39:59.196Z,2.10
2018-03-17T13:42:26.680Z,2.10
2018-03-17T13:44:54.973Z,2.10
2018-03-17T13:47:22.432Z,2.10
2018-03-17T13:49:49.897Z,2.20
2018-03-17T13:52:17.381Z,2.20
2018-03-17T13:54:44.839Z,2.20
2018-03-17T13:57:12.312Z,2.20
2018-03-17T13:59:39.781Z,2.30
2018-03-17T14:02:07.264Z,2.20
2018-03-17T14:04:35.524Z,2.10
2018-03-17T14:07:03.025Z,2.10
2018-03-17T14:09:30.533Z,2.10
2018-03-17T14:11:57.983Z,2.00
2018-03-17T14:14:25.452Z,2.00
2018-03-17T14:16:52.920Z,2.00
2018-03-17T14:19:21.168Z,2.00
2018-03-17T14:21:48.631Z,2.00
2018-03-17T14:24:16.823Z,1.90
2018-03-17T14:26:44.875Z,2.00
2018-03-17T14:29:12.363Z,2.00
2018-03-17T14:31:40.598Z,2.10
2018-03-17T14:34:08.067Z,2.10
2018-03-17T14:36:35.578Z,2.10
2018-03-17T14:39:03.044Z,2.10
2018-03-17T14:41:30.518Z,2.00
2018-03-17T14:43:57.986Z,2.00
2018-03-17T14:46:25.456Z,2.00
2018-03-17T14:48:52.917Z,2.00
2018-03-17T14:51:20.384Z,2.00
2018-03-17T14:53:48.640Z,2.10
2018-03-17T14:56:16.111Z,2.00
2018-03-17T14:58:43.592Z,2.10
2018-03-17T15:01:11.052Z,2.10
2018-03-17T15:03:38.512Z,2.10
2018-03-17T15:06:05.979Z,2.00
2018-03-17T15:08:33.688Z,2.00
2018-03-17T15:11:01.232Z,1.90
2018-03-17T15:13:28.696Z,1.90
2018-03-17T15:15:56.168Z,1.90
2018-03-17T15:18:23.626Z,1.80
2018-03-17T15:20:51.208Z,1.80
2018-03-17T15:23:18.661Z,1.80
2018-03-17T15:25:46.892Z,1.90
2018-03-17T15:28:14.361Z,1.80
2018-03-17T15:30:41.832Z,1.90
2018-03-17T15:33:09.308Z,1.80
2018-03-17T15:35:37.540Z,1.80
2018-03-17T15:38:05.015Z,1.80
2018-03-17T15:40:32.476Z,1.80
2018-03-17T15:42:59.957Z,1.80
2018-03-17T15:45:27.411Z,1.90
2018-03-17T15:47:54.876Z,1.80
2018-03-17T15:50:22.332Z,1.80
2018-03-17T15:52:49.801Z,1.80
2018-03-17T15:55:17.277Z,1.70
2018-03-17T15:57:44.758Z,1.60
2018-03-17T16:00:12.307Z,1.60
2018-03-17T16:02:39.772Z,1.60
2018-03-17T16:05:07.257Z,1.50
2018-03-17T16:07:34.740Z,1.50
2018-03-17T16:10:02.202Z,1.50
2018-03-17T16:12:29.696Z,1.50
2018-03-17T16:14:57.177Z,1.50
2018-03-17T16:17:24.655Z,1.50
2018-03-17T16:19:52.189Z,1.40
2018-03-17T16:22:19.645Z,1.40
2018-03-17T16:24:47.138Z,1.50
2018-03-17T16:27:15.368Z,1.50
2018-03-17T16:29:42.848Z,1.50
2018-03-17T16:32:10.308Z,1.50
2018-03-17T16:34:37.798Z,1.40
2018-03-17T16:37:05.280Z,1.40
2018-03-17T16:39:32.779Z,1.40
2018-03-17T16:42:00.248Z,1.30
2018-03-17T16:44:28.495Z,1.30
2018-03-17T16:46:56.013Z,1.20
2018-03-17T16:49:23.466Z,1.20
2018-03-17T16:51:50.993Z,1.20
2018-03-17T16:54:18.428Z,1.20
2018-03-17T16:56:45.884Z,1.10
2018-03-17T16:59:13.391Z,1.10
2018-03-17T17:01:40.854Z,1.10
2018-03-17T17:04:08.316Z,1.10
2018-03-17T17:06:35.788Z,1.10
2018-03-17T17:09:03.247Z,1.10
2018-03-17T17:11:30.730Z,1.10
2018-03-17T17:13:58.199Z,1.10
2018-03-17T17:16:26.432Z,1.10
2018-03-17T17:18:54.713Z,1.10
2018-03-17T17:21:22.180Z,1.10
2018-03-17T17:23:49.633Z,1.10
2018-03-17T17:26:17.119Z,1.00
2018-03-17T17:28:44.651Z,1.00
2018-03-17T17:31:12.160Z,1.00
2018-03-17T17:33:39.626Z,0.90
2018-03-17T17:36:07.136Z,0.90
2018-03-17T17:38:34.608Z,0.90
2018-03-17T17:41:02.081Z,0.80
2018-03-17T17:43:29.580Z,0.80
2018-03-17T17:45:57.108Z,0.80
2018-03-17T17:48:24.547Z,0.80
2018-03-17T17:50:52.024Z,0.80
2018-03-17T17:53:19.504Z,0.70
2018-03-17T17:55:46.964Z,0.70
2018-03-17T17:58:14.440Z,0.70
2018-03-17T18:00:41.901Z,0.70
2018-03-17T18:03:09.389Z,0.70
2018-03-17T18:05:37.616Z,0.60
2018-03-17T18:08:05.095Z,0.60
2018-03-17T18:10:32.557Z,0.60
2018-03-17T18:13:00.035Z,0.60
2018-03-17T18:15:27.500Z,0.60
2018-03-17T18:17:54.984Z,0.70
2018-03-17T18:20:22.455Z,0.60
2018-03-17T18:22:49.923Z,0.60
2018-03-17T18:25:17.408Z,0.50
2018-03-17T18:27:44.891Z,0.50
2018-03-17T18:30:12.427Z,0.50
2018-03-17T18:32:39.854Z,0.50
2018-03-17T18:35:07.340Z,0.50
2018-03-17T18:37:34.817Z,0.40
2018-03-17T18:40:02.329Z,0.40
2018-03-17T18:42:29.795Z,0.30
2018-03-17T18:44:57.261Z,0.30
2018-03-17T18:47:24.718Z,0.30
2018-03-17T18:49:52.194Z,0.30
2018-03-17T18:52:19.656Z,0.30
2018-03-17T18:54:47.135Z,0.30
2018-03-17T18:57:14.616Z,0.20
2018-03-17T18:59:42.116Z,0.20
2018-03-17T19:02:09.596Z,0.20
2018-03-17T19:04:37.083Z,0.20
2018-03-17T19:07:04.569Z,0.20
2018-03-17T19:09:32.091Z,0.20
2018-03-17T19:11:59.575Z,0.20
2018-03-17T19:14:27.062Z,0.20
2018-03-17T19:16:54.533Z,0.20
2018-03-17T19:19:22.000Z,0.20
2018-03-17T19:21:49.476Z,0.20
2018-03-17T19:24:16.944Z,0.20
2018-03-17T19:26:44.439Z,0.20
2018-03-17T19:29:11.895Z,0.20
2018-03-17T19:31:39.362Z,0.20
2018-03-17T19:34:07.676Z,0.10
2018-03-17T19:36:35.163Z,0.10
2018-03-17T19:39:02.623Z,0.20
2018-03-17T19:41:30.123Z,0.10
2018-03-17T19:43:58.360Z,0.10
2018-03-17T19:46:25.829Z,0.10
2018-03-17T19:48:53.310Z,0.10
2018-03-17T19:51:20.791Z,0.20
2018-03-17T19:53:48.287Z,0.10
2018-03-17T19:56:15.760Z,0.10
2018-03-17T19:58:43.223Z,0.10
2018-03-17T20:01:10.718Z,0.10
2018-03-17T20:03:38.219Z,0.10
2018-03-17T20:06:05.705Z,0.10
2018-03-17T20:08:33.174Z,0.10
2018-03-17T20:11:00.657Z,0.30
2018-03-17T20:13:28.214Z,0.20
2018-03-17T20:15:55.675Z,0.20
2018-03-17T20:18:23.190Z,0.20
2018-03-17T20:20:51.436Z,0.20
2018-03-17T20:23:18.914Z,0.20
2018-03-17T20:25:46.380Z,0.20
2018-03-17T20:28:13.860Z,0.10
2018-03-17T20:30:41.331Z,0.10
2018-03-17T20:33:08.830Z,0.10
2018-03-17T20:35:36.312Z,0.10
2018-03-17T20:38:04.564Z,0.00
2018-03-17T20:40:32.046Z,0.00
2018-03-17T20:42:59.649Z,0.00
2018-03-17T20:45:27.111Z,0.00
2018-03-17T20:47:54.632Z,0.00
2018-03-17T20:50:22.428Z,-0.10
2018-03-17T20:52:49.950Z,-0.10
2018-03-17T20:55:17.423Z,-0.10
2018-03-17T20:57:44.906Z,-0.10
2018-03-17T21:00:12.385Z,-0.10
2018-03-17T21:02:39.896Z,-0.10
2018-03-17T21:05:07.372Z,-0.10
2018-03-17T21:07:34.839Z,-0.10
2018-03-17T21:10:02.336Z,-0.10
2018-03-17T21:12:29.894Z,-0.10
2018-03-17T21:14:57.373Z,-0.10
2018-03-17T21:17:24.849Z,-0.10
2018-03-17T21:19:52.331Z,-0.10
2018-03-17T21:22:19.879Z,-0.10
2018-03-17T21:24:47.376Z,-0.10
2018-03-17T21:27:14.848Z,-0.10
2018-03-17T21:29:42.312Z,-0.10
2018-03-17T21:32:09.787Z,-0.10
2018-03-17T21:34:37.260Z,-0.10
2018-03-17T21:37:04.743Z,-0.10
2018-03-17T21:39:32.215Z,-0.10
2018-03-17T21:41:59.687Z,-0.10
2018-03-17T21:44:27.156Z,-0.10
2018-03-17T21:46:54.673Z,-0.10
2018-03-17T21:49:22.147Z,-0.10
2018-03-17T21:51:49.617Z,-0.10
2018-03-17T21:54:17.084Z,0.00
2018-03-17T21:56:45.338Z,-0.20
2018-03-17T21:59:12.831Z,-0.20
2018-03-17T22:01:40.313Z,-0.20
2018-03-17T22:04:07.803Z,-0.20
2018-03-17T22:06:35.700Z,-0.30
2018-03-17T22:09:03.944Z,-0.30
2018-03-17T22:11:31.427Z,-0.30
2018-03-17T22:13:58.923Z,-0.30
2018-03-17T22:16:26.420Z,-0.20
2018-03-17T22:18:53.902Z,-0.20
2018-03-17T22:21:21.368Z,-0.20
2018-03-17T22:23:48.869Z,-0.20
2018-03-17T22:26:16.347Z,-0.20
2018-03-17T22:28:43.872Z,-0.20
2018-03-17T22:31:11.339Z,-0.20
2018-03-17T22:33:38.846Z,0.10
2018-03-17T22:36:07.089Z,0.00
2018-03-17T22:38:34.600Z,-0.10
2018-03-17T22:41:02.056Z,-0.10
2018-03-17T22:43:29.536Z,0.00
2018-03-17T22:45:57.004Z,-0.10
2018-03-17T22:48:24.497Z,-0.10
2018-03-17T22:50:52.748Z,0.00
2018-03-17T22:53:20.238Z,0.00
2018-03-17T22:55:47.739Z,-0.10
2018-03-17T22:58:15.207Z,-0.10
2018-03-17T23:00:42.688Z,0.00
2018-03-17T23:03:10.147Z,-0.10
2018-03-17T23:05:37.610Z,0.00
2018-03-17T23:08:05.068Z,0.00
2018-03-17T23:10:32.540Z,0.00
2018-03-17T23:13:00.003Z,-0.10
2018-03-17T23:15:28.245Z,-0.10
2018-03-17T23:17:55.713Z,-0.10
2018-03-17T23:20:23.178Z,0.00
2018-03-17T23:22:50.644Z,0.00
2018-03-17T23:25:18.185Z,0.00
2018-03-17T23:27:45.655Z,0.00
2018-03-17T23:30:13.119Z,0.00
2018-03-17T23:32:41.348Z,0.00
2018-03-17T23:35:08.831Z,0.00
2018-03-17T23:37:36.316Z,0.00
2018-03-17T23:40:03.767Z,0.00
2018-03-17T23:42:31.241Z,0.00
2018-03-17T23:44:58.701Z,-0.10
2018-03-17T23:47:26.193Z,-0.10
2018-03-17T23:49:53.665Z,-0.30
2018-03-17T23:52:21.144Z,-0.40
2018-03-17T23:54:48.615Z,-0.40
2018-03-17T23:57:16.855Z,-0.60
2018-03-17T23:59:44.331Z,-0.60
